sensor_id;sensor_type;location;lat;lon;timestamp;P1;durP1;ratioP1;P2;durP2;ratioP2
291;SDS011;23311;48.776;9.162;2023-04-16T00:01:15;18.23;;;14.70;;
291;SDS011;23311;48.776;9.162;2023-04-16T00:03:43;15.47;;;11.90;;
291;SDS011;23311;48.776;9.162;2023-04-16T00:06:12;14.87;;;12.47;;
291;SDS011;23311;48.776;9.162;2023-04-16T00:08:40;13.17;;;11.40;;
291;SDS011;23311;48.776;9.162;2023-04-16T00:11:09;17.73;;;12.77;;
291;SDS011;23311;48.776;9.162;2023-04-16T00:13:43;15.80;;;12.90;;
291;SDS011;23311;48.776;9.162;2023-04-16T00:16:11;14.40;;;12.13;;
291;SDS011;23311;48.776;9.162;2023-04-16T00:18:41;13.80;;;11.80;;
291;SDS011;23311;48.776;9.162;2023-04-16T00:21:13;15.50;;;12.23;;
291;SDS011;23311;48.776;9.162;2023-04-16T00:23:41;13.80;;;12.00;;
291;SDS011;23311;48.776;9.162;2023-04-16T00:26:09;14.67;;;10.80;;
291;SDS011;23311;48.776;9.162;2023-04-16T00:28:42;15.17;;;12.40;;
291;SDS011;23311;48.776;9.162;2023-04-16T00:31:16;13.53;;;10.70;;
291;SDS011;23311;48.776;9.162;2023-04-16T00:33:54;17.40;;;12.60;;
291;SDS011;23311;48.776;9.162;2023-04-16T00:36:22;15.80;;;12.40;;
291;SDS011;23311;48.776;9.162;2023-04-16T00:38:50;14.90;;;12.80;;
291;SDS011;23311;48.776;9.162;2023-04-16T00:41:19;14.07;;;12.17;;
291;SDS011;23311;48.776;9.162;2023-04-16T00:43:48;14.17;;;11.03;;
291;SDS011;23311;48.776;9.162;2023-04-16T00:46:17;15.57;;;13.80;;
291;SDS011;23311;48.776;9.162;2023-04-16T00:48:46;13.50;;;11.80;;
291;SDS011;23311;48.776;9.162;2023-04-16T00:51:17;14.70;;;12.60;;
291;SDS011;23311;48.776;9.162;2023-04-16T00:53:45;19.30;;;13.83;;
291;SDS011;23311;48.776;9.162;2023-04-16T00:56:14;13.50;;;11.57;;
291;SDS011;23311;48.776;9.162;2023-04-16T00:58:43;15.20;;;12.43;;
291;SDS011;23311;48.776;9.162;2023-04-16T01:01:11;14.47;;;11.60;;
291;SDS011;23311;48.776;9.162;2023-04-16T01:03:42;14.13;;;12.60;;
291;SDS011;23311;48.776;9.162;2023-04-16T01:06:11;15.00;;;12.63;;
291;SDS011;23311;48.776;9.162;2023-04-16T01:08:42;13.10;;;10.60;;
291;SDS011;23311;48.776;9.162;2023-04-16T01:11:10;14.97;;;11.30;;
291;SDS011;23311;48.776;9.162;2023-04-16T01:13:38;13.10;;;11.23;;
291;SDS011;23311;48.776;9.162;2023-04-16T01:16:07;12.07;;;10.70;;
291;SDS011;23311;48.776;9.162;2023-04-16T01:18:36;15.87;;;10.90;;
291;SDS011;23311;48.776;9.162;2023-04-16T01:21:06;13.93;;;11.20;;
291;SDS011;23311;48.776;9.162;2023-04-16T01:23:34;13.10;;;11.20;;
291;SDS011;23311;48.776;9.162;2023-04-16T01:26:02;12.97;;;9.70;;
291;SDS011;23311;48.776;9.162;2023-04-16T01:28:30;12.67;;;10.57;;
291;SDS011;23311;48.776;9.162;2023-04-16T01:30:58;12.57;;;10.47;;
291;SDS011;23311;48.776;9.162;2023-04-16T01:33:26;12.47;;;10.30;;
291;SDS011;23311;48.776;9.162;2023-04-16T01:35:54;10.47;;;9.93;;
291;SDS011;23311;48.776;9.162;2023-04-16T01:38:24;13.20;;;10.73;;
291;SDS011;23311;48.776;9.162;2023-04-16T01:40:54;12.20;;;10.23;;
291;SDS011;23311;48.776;9.162;2023-04-16T01:43:22;11.53;;;10.30;;
291;SDS011;23311;48.776;9.162;2023-04-16T01:45:51;10.93;;;9.60;;
291;SDS011;23311;48.776;9.162;2023-04-16T01:48:20;11.80;;;10.07;;
291;SDS011;23311;48.776;9.162;2023-04-16T01:50:48;12.13;;;10.20;;
291;SDS011;23311;48.776;9.162;2023-04-16T01:53:16;12.83;;;10.50;;
291;SDS011;23311;48.776;9.162;2023-04-16T01:55:45;11.90;;;10.20;;
291;SDS011;23311;48.776;9.162;2023-04-16T01:58:13;11.43;;;9.57;;
291;SDS011;23311;48.776;9.162;2023-04-16T02:00:41;9.73;;;8.00;;
291;SDS011;23311;48.776;9.162;2023-04-16T02:03:09;12.47;;;9.33;;
291;SDS011;23311;48.776;9.162;2023-04-16T02:05:38;10.73;;;8.07;;
291;SDS011;23311;48.776;9.162;2023-04-16T02:08:06;11.27;;;9.60;;
291;SDS011;23311;48.776;9.162;2023-04-16T02:10:34;9.90;;;9.03;;
291;SDS011;23311;48.776;9.162;2023-04-16T02:13:03;9.43;;;8.93;;
291;SDS011;23311;48.776;9.162;2023-04-16T02:15:31;10.27;;;9.17;;
291;SDS011;23311;48.776;9.162;2023-04-16T02:17:59;10.50;;;9.50;;
291;SDS011;23311;48.776;9.162;2023-04-16T02:20:27;11.83;;;10.00;;
291;SDS011;23311;48.776;9.162;2023-04-16T02:22:55;10.90;;;9.50;;
291;SDS011;23311;48.776;9.162;2023-04-16T02:25:23;12.30;;;10.80;;
291;SDS011;23311;48.776;9.162;2023-04-16T02:27:51;10.50;;;9.70;;
291;SDS011;23311;48.776;9.162;2023-04-16T02:30:21;12.10;;;10.27;;
291;SDS011;23311;48.776;9.162;2023-04-16T02:32:49;10.13;;;8.83;;
291;SDS011;23311;48.776;9.162;2023-04-16T02:35:17;12.10;;;9.40;;
291;SDS011;23311;48.776;9.162;2023-04-16T02:37:46;12.70;;;9.97;;
291;SDS011;23311;48.776;9.162;2023-04-16T02:40:14;12.00;;;8.70;;
291;SDS011;23311;48.776;9.162;2023-04-16T02:42:42;12.20;;;9.60;;
291;SDS011;23311;48.776;9.162;2023-04-16T02:45:10;11.80;;;9.57;;
291;SDS011;23311;48.776;9.162;2023-04-16T02:47:40;12.60;;;10.30;;
291;SDS011;23311;48.776;9.162;2023-04-16T02:50:08;12.63;;;10.47;;
291;SDS011;23311;48.776;9.162;2023-04-16T02:52:37;12.37;;;10.00;;
291;SDS011;23311;48.776;9.162;2023-04-16T02:55:05;13.17;;;9.87;;
291;SDS011;23311;48.776;9.162;2023-04-16T02:57:34;11.13;;;9.20;;
291;SDS011;23311;48.776;9.162;2023-04-16T03:00:03;12.47;;;10.77;;
291;SDS011;23311;48.776;9.162;2023-04-16T03:02:31;10.43;;;8.67;;
291;SDS011;23311;48.776;9.162;2023-04-16T03:05:01;11.70;;;8.63;;
291;SDS011;23311;48.776;9.162;2023-04-16T03:07:29;13.10;;;10.30;;
291;SDS011;23311;48.776;9.162;2023-04-16T03:09:57;13.80;;;11.33;;
291;SDS011;23311;48.776;9.162;2023-04-16T03:12:25;12.23;;;9.57;;
291;SDS011;23311;48.776;9.162;2023-04-16T03:14:53;13.57;;;10.00;;
291;SDS011;23311;48.776;9.162;2023-04-16T03:17:21;12.00;;;9.87;;
291;SDS011;23311;48.776;9.162;2023-04-16T03:19:49;13.97;;;10.40;;
291;SDS011;23311;48.776;9.162;2023-04-16T03:22:19;12.37;;;10.27;;
291;SDS011;23311;48.776;9.162;2023-04-16T03:24:47;13.87;;;10.67;;
291;SDS011;23311;48.776;9.162;2023-04-16T03:27:15;14.20;;;10.50;;
291;SDS011;23311;48.776;9.162;2023-04-16T03:29:43;13.50;;;10.37;;
291;SDS011;23311;48.776;9.162;2023-04-16T03:32:11;14.80;;;10.80;;
291;SDS011;23311;48.776;9.162;2023-04-16T03:34:39;14.33;;;11.20;;
291;SDS011;23311;48.776;9.162;2023-04-16T03:37:07;13.80;;;10.53;;
291;SDS011;23311;48.776;9.162;2023-04-16T03:39:38;15.07;;;11.60;;
291;SDS011;23311;48.776;9.162;2023-04-16T03:42:06;14.70;;;10.43;;
291;SDS011;23311;48.776;9.162;2023-04-16T03:44:34;12.53;;;10.80;;
291;SDS011;23311;48.776;9.162;2023-04-16T03:47:02;14.47;;;11.83;;
291;SDS011;23311;48.776;9.162;2023-04-16T03:49:30;13.73;;;10.13;;
291;SDS011;23311;48.776;9.162;2023-04-16T03:51:59;15.00;;;11.80;;
291;SDS011;23311;48.776;9.162;2023-04-16T03:54:27;14.67;;;11.03;;
291;SDS011;23311;48.776;9.162;2023-04-16T03:56:56;15.23;;;10.50;;
291;SDS011;23311;48.776;9.162;2023-04-16T03:59:24;16.90;;;11.20;;
291;SDS011;23311;48.776;9.162;2023-04-16T04:01:52;14.50;;;12.03;;
291;SDS011;23311;48.776;9.162;2023-04-16T04:04:20;13.90;;;11.03;;
291;SDS011;23311;48.776;9.162;2023-04-16T04:06:48;15.80;;;11.97;;
291;SDS011;23311;48.776;9.162;2023-04-16T04:09:16;16.37;;;12.13;;
291;SDS011;23311;48.776;9.162;2023-04-16T04:11:44;15.50;;;10.83;;
291;SDS011;23311;48.776;9.162;2023-04-16T04:14:14;15.57;;;11.20;;
291;SDS011;23311;48.776;9.162;2023-04-16T04:16:41;15.07;;;10.80;;
291;SDS011;23311;48.776;9.162;2023-04-16T04:19:10;16.60;;;11.40;;
291;SDS011;23311;48.776;9.162;2023-04-16T04:21:38;14.53;;;10.30;;
291;SDS011;23311;48.776;9.162;2023-04-16T04:24:06;17.87;;;11.70;;
291;SDS011;23311;48.776;9.162;2023-04-16T04:26:34;13.07;;;10.93;;
291;SDS011;23311;48.776;9.162;2023-04-16T04:29:02;14.80;;;10.80;;
291;SDS011;23311;48.776;9.162;2023-04-16T04:31:31;19.10;;;10.90;;
291;SDS011;23311;48.776;9.162;2023-04-16T04:33:59;14.20;;;10.50;;
291;SDS011;23311;48.776;9.162;2023-04-16T04:36:27;13.23;;;9.43;;
291;SDS011;23311;48.776;9.162;2023-04-16T04:38:56;14.00;;;9.70;;
291;SDS011;23311;48.776;9.162;2023-04-16T04:41:24;15.20;;;9.23;;
291;SDS011;23311;48.776;9.162;2023-04-16T04:43:53;14.73;;;11.67;;
291;SDS011;23311;48.776;9.162;2023-04-16T04:46:21;15.63;;;10.70;;
291;SDS011;23311;48.776;9.162;2023-04-16T04:48:50;14.77;;;10.37;;
291;SDS011;23311;48.776;9.162;2023-04-16T04:51:18;14.23;;;10.10;;
291;SDS011;23311;48.776;9.162;2023-04-16T04:53:46;15.80;;;11.47;;
291;SDS011;23311;48.776;9.162;2023-04-16T04:56:14;14.70;;;10.30;;
291;SDS011;23311;48.776;9.162;2023-04-16T04:58:42;12.33;;;9.77;;
291;SDS011;23311;48.776;9.162;2023-04-16T05:01:10;15.70;;;11.17;;
291;SDS011;23311;48.776;9.162;2023-04-16T05:03:38;12.30;;;9.57;;
291;SDS011;23311;48.776;9.162;2023-04-16T05:06:08;15.70;;;10.80;;
291;SDS011;23311;48.776;9.162;2023-04-16T05:08:36;13.13;;;9.60;;
291;SDS011;23311;48.776;9.162;2023-04-16T05:11:04;12.00;;;9.03;;
291;SDS011;23311;48.776;9.162;2023-04-16T05:13:32;14.60;;;10.73;;
291;SDS011;23311;48.776;9.162;2023-04-16T05:16:00;14.87;;;9.43;;
291;SDS011;23311;48.776;9.162;2023-04-16T05:18:28;14.67;;;10.37;;
291;SDS011;23311;48.776;9.162;2023-04-16T05:20:57;12.70;;;10.13;;
291;SDS011;23311;48.776;9.162;2023-04-16T05:23:27;14.10;;;10.37;;
291;SDS011;23311;48.776;9.162;2023-04-16T05:25:55;13.63;;;9.93;;
291;SDS011;23311;48.776;9.162;2023-04-16T05:28:23;15.47;;;12.47;;
291;SDS011;23311;48.776;9.162;2023-04-16T05:30:51;18.00;;;14.47;;
291;SDS011;23311;48.776;9.162;2023-04-16T05:33:19;21.50;;;14.10;;
291;SDS011;23311;48.776;9.162;2023-04-16T05:35:47;24.87;;;16.67;;
291;SDS011;23311;48.776;9.162;2023-04-16T05:38:15;22.90;;;15.43;;
291;SDS011;23311;48.776;9.162;2023-04-16T05:40:45;25.37;;;17.00;;
291;SDS011;23311;48.776;9.162;2023-04-16T05:43:13;23.93;;;16.50;;
291;SDS011;23311;48.776;9.162;2023-04-16T05:45:41;25.00;;;16.03;;
291;SDS011;23311;48.776;9.162;2023-04-16T05:48:09;27.33;;;16.73;;
291;SDS011;23311;48.776;9.162;2023-04-16T05:50:37;24.40;;;16.83;;
291;SDS011;23311;48.776;9.162;2023-04-16T05:53:06;26.03;;;17.50;;
291;SDS011;23311;48.776;9.162;2023-04-16T05:55:35;30.43;;;20.73;;
291;SDS011;23311;48.776;9.162;2023-04-16T05:58:04;26.07;;;19.07;;
291;SDS011;23311;48.776;9.162;2023-04-16T06:00:32;34.93;;;20.73;;
291;SDS011;23311;48.776;9.162;2023-04-16T06:03:00;33.90;;;20.27;;
291;SDS011;23311;48.776;9.162;2023-04-16T06:05:29;35.07;;;20.40;;
291;SDS011;23311;48.776;9.162;2023-04-16T06:07:57;33.20;;;22.13;;
291;SDS011;23311;48.776;9.162;2023-04-16T06:10:25;32.60;;;20.30;;
291;SDS011;23311;48.776;9.162;2023-04-16T06:12:53;30.30;;;21.90;;
291;SDS011;23311;48.776;9.162;2023-04-16T06:15:23;33.17;;;21.90;;
291;SDS011;23311;48.776;9.162;2023-04-16T06:17:51;38.90;;;22.10;;
291;SDS011;23311;48.776;9.162;2023-04-16T06:20:22;35.97;;;23.63;;
291;SDS011;23311;48.776;9.162;2023-04-16T06:22:50;33.43;;;22.37;;
291;SDS011;23311;48.776;9.162;2023-04-16T06:25:18;28.80;;;20.23;;
291;SDS011;23311;48.776;9.162;2023-04-16T06:27:46;28.23;;;19.80;;
291;SDS011;23311;48.776;9.162;2023-04-16T06:30:15;27.87;;;19.27;;
291;SDS011;23311;48.776;9.162;2023-04-16T06:32:44;28.97;;;19.60;;
291;SDS011;23311;48.776;9.162;2023-04-16T06:35:13;33.57;;;20.77;;
291;SDS011;23311;48.776;9.162;2023-04-16T06:37:41;29.93;;;20.77;;
291;SDS011;23311;48.776;9.162;2023-04-16T06:40:09;33.27;;;20.93;;
291;SDS011;23311;48.776;9.162;2023-04-16T06:42:38;36.00;;;22.30;;
291;SDS011;23311;48.776;9.162;2023-04-16T06:45:08;31.13;;;21.57;;
291;SDS011;23311;48.776;9.162;2023-04-16T06:47:37;33.20;;;21.80;;
291;SDS011;23311;48.776;9.162;2023-04-16T06:50:07;35.33;;;22.53;;
291;SDS011;23311;48.776;9.162;2023-04-16T06:52:35;36.00;;;21.80;;
291;SDS011;23311;48.776;9.162;2023-04-16T06:55:03;33.23;;;22.57;;
291;SDS011;23311;48.776;9.162;2023-04-16T06:57:33;32.20;;;20.33;;
291;SDS011;23311;48.776;9.162;2023-04-16T07:00:03;34.00;;;21.60;;
291;SDS011;23311;48.776;9.162;2023-04-16T07:02:32;30.73;;;20.87;;
291;SDS011;23311;48.776;9.162;2023-04-16T07:05:00;27.50;;;20.13;;
291;SDS011;23311;48.776;9.162;2023-04-16T07:07:29;32.03;;;21.53;;
291;SDS011;23311;48.776;9.162;2023-04-16T07:09:57;34.00;;;21.10;;
291;SDS011;23311;48.776;9.162;2023-04-16T07:12:26;31.77;;;21.13;;
291;SDS011;23311;48.776;9.162;2023-04-16T07:14:54;34.40;;;21.57;;
291;SDS011;23311;48.776;9.162;2023-04-16T07:17:22;31.07;;;20.03;;
291;SDS011;23311;48.776;9.162;2023-04-16T07:19:50;29.60;;;20.73;;
291;SDS011;23311;48.776;9.162;2023-04-16T07:22:18;27.60;;;19.67;;
291;SDS011;23311;48.776;9.162;2023-04-16T07:24:49;29.97;;;20.03;;
291;SDS011;23311;48.776;9.162;2023-04-16T07:27:17;28.53;;;20.87;;
291;SDS011;23311;48.776;9.162;2023-04-16T07:29:45;29.73;;;20.00;;
291;SDS011;23311;48.776;9.162;2023-04-16T07:32:13;27.47;;;19.80;;
291;SDS011;23311;48.776;9.162;2023-04-16T07:34:41;29.10;;;19.20;;
291;SDS011;23311;48.776;9.162;2023-04-16T07:37:09;27.93;;;19.40;;
291;SDS011;23311;48.776;9.162;2023-04-16T07:39:37;25.23;;;17.40;;
291;SDS011;23311;48.776;9.162;2023-04-16T07:42:06;26.37;;;18.73;;
291;SDS011;23311;48.776;9.162;2023-04-16T07:44:34;23.30;;;16.83;;
291;SDS011;23311;48.776;9.162;2023-04-16T07:47:02;22.40;;;17.60;;
291;SDS011;23311;48.776;9.162;2023-04-16T07:49:31;25.90;;;18.17;;
291;SDS011;23311;48.776;9.162;2023-04-16T07:52:02;21.70;;;17.23;;
291;SDS011;23311;48.776;9.162;2023-04-16T07:54:35;22.70;;;16.97;;
291;SDS011;23311;48.776;9.162;2023-04-16T07:57:03;23.00;;;16.30;;
291;SDS011;23311;48.776;9.162;2023-04-16T07:59:33;24.83;;;16.40;;
291;SDS011;23311;48.776;9.162;2023-04-16T08:02:01;23.23;;;17.00;;
291;SDS011;23311;48.776;9.162;2023-04-16T08:04:30;23.50;;;17.63;;
291;SDS011;23311;48.776;9.162;2023-04-16T08:06:58;24.87;;;17.60;;
291;SDS011;23311;48.776;9.162;2023-04-16T08:09:26;25.57;;;17.03;;
291;SDS011;23311;48.776;9.162;2023-04-16T08:11:55;23.43;;;16.77;;
291;SDS011;23311;48.776;9.162;2023-04-16T08:14:23;20.63;;;14.87;;
291;SDS011;23311;48.776;9.162;2023-04-16T08:16:52;20.33;;;15.30;;
291;SDS011;23311;48.776;9.162;2023-04-16T08:19:20;22.17;;;15.97;;
291;SDS011;23311;48.776;9.162;2023-04-16T08:21:48;18.30;;;14.60;;
291;SDS011;23311;48.776;9.162;2023-04-16T08:24:16;21.43;;;16.50;;
291;SDS011;23311;48.776;9.162;2023-04-16T08:26:44;19.07;;;15.27;;
291;SDS011;23311;48.776;9.162;2023-04-16T08:29:12;23.10;;;16.60;;
291;SDS011;23311;48.776;9.162;2023-04-16T08:31:40;20.17;;;15.40;;
291;SDS011;23311;48.776;9.162;2023-04-16T08:34:10;22.40;;;15.87;;
291;SDS011;23311;48.776;9.162;2023-04-16T08:36:38;19.00;;;14.70;;
291;SDS011;23311;48.776;9.162;2023-04-16T08:39:07;21.23;;;15.07;;
291;SDS011;23311;48.776;9.162;2023-04-16T08:41:36;24.20;;;16.47;;
291;SDS011;23311;48.776;9.162;2023-04-16T08:44:07;20.60;;;15.50;;
291;SDS011;23311;48.776;9.162;2023-04-16T08:46:38;19.83;;;15.50;;
291;SDS011;23311;48.776;9.162;2023-04-16T08:49:07;18.97;;;16.67;;
291;SDS011;23311;48.776;9.162;2023-04-16T08:51:41;20.77;;;16.23;;
291;SDS011;23311;48.776;9.162;2023-04-16T08:54:17;23.47;;;16.53;;
291;SDS011;23311;48.776;9.162;2023-04-16T08:56:54;22.07;;;15.37;;
291;SDS011;23311;48.776;9.162;2023-04-16T08:59:25;21.73;;;15.43;;
291;SDS011;23311;48.776;9.162;2023-04-16T09:01:55;23.10;;;15.80;;
291;SDS011;23311;48.776;9.162;2023-04-16T09:04:25;18.67;;;15.33;;
291;SDS011;23311;48.776;9.162;2023-04-16T09:06:57;17.30;;;14.30;;
291;SDS011;23311;48.776;9.162;2023-04-16T09:09:25;19.80;;;15.00;;
291;SDS011;23311;48.776;9.162;2023-04-16T09:11:54;22.33;;;14.10;;
291;SDS011;23311;48.776;9.162;2023-04-16T09:14:22;18.67;;;13.90;;
291;SDS011;23311;48.776;9.162;2023-04-16T09:16:52;16.37;;;12.73;;
291;SDS011;23311;48.776;9.162;2023-04-16T09:19:20;16.20;;;12.50;;
291;SDS011;23311;48.776;9.162;2023-04-16T09:21:49;18.10;;;13.43;;
291;SDS011;23311;48.776;9.162;2023-04-16T09:24:20;18.57;;;13.83;;
291;SDS011;23311;48.776;9.162;2023-04-16T09:26:48;16.03;;;13.90;;
291;SDS011;23311;48.776;9.162;2023-04-16T09:29:33;16.47;;;12.80;;
291;SDS011;23311;48.776;9.162;2023-04-16T09:32:02;20.73;;;14.37;;
291;SDS011;23311;48.776;9.162;2023-04-16T09:34:32;17.03;;;13.53;;
291;SDS011;23311;48.776;9.162;2023-04-16T09:37:12;17.13;;;13.30;;
291;SDS011;23311;48.776;9.162;2023-04-16T09:39:43;20.33;;;13.43;;
291;SDS011;23311;48.776;9.162;2023-04-16T09:42:12;17.80;;;12.73;;
291;SDS011;23311;48.776;9.162;2023-04-16T09:44:40;17.10;;;13.10;;
291;SDS011;23311;48.776;9.162;2023-04-16T09:47:08;20.33;;;13.90;;
291;SDS011;23311;48.776;9.162;2023-04-16T09:49:39;17.40;;;12.90;;
291;SDS011;23311;48.776;9.162;2023-04-16T09:52:08;17.40;;;13.80;;
291;SDS011;23311;48.776;9.162;2023-04-16T09:54:46;18.03;;;13.13;;
291;SDS011;23311;48.776;9.162;2023-04-16T09:57:17;19.70;;;12.47;;
291;SDS011;23311;48.776;9.162;2023-04-16T09:59:47;19.47;;;13.10;;
291;SDS011;23311;48.776;9.162;2023-04-16T10:02:19;16.40;;;12.83;;
291;SDS011;23311;48.776;9.162;2023-04-16T10:04:49;19.43;;;13.33;;
291;SDS011;23311;48.776;9.162;2023-04-16T10:07:18;23.63;;;14.37;;
291;SDS011;23311;48.776;9.162;2023-04-16T10:09:48;18.77;;;13.20;;
291;SDS011;23311;48.776;9.162;2023-04-16T10:12:18;17.63;;;13.27;;
291;SDS011;23311;48.776;9.162;2023-04-16T10:14:46;19.13;;;14.27;;
291;SDS011;23311;48.776;9.162;2023-04-16T10:17:16;19.60;;;14.17;;
291;SDS011;23311;48.776;9.162;2023-04-16T10:19:44;19.17;;;13.00;;
291;SDS011;23311;48.776;9.162;2023-04-16T10:22:12;18.40;;;14.87;;
291;SDS011;23311;48.776;9.162;2023-04-16T10:24:41;18.57;;;14.00;;
291;SDS011;23311;48.776;9.162;2023-04-16T10:27:11;19.13;;;13.93;;
291;SDS011;23311;48.776;9.162;2023-04-16T10:29:39;19.47;;;14.50;;
291;SDS011;23311;48.776;9.162;2023-04-16T10:32:07;19.57;;;13.80;;
291;SDS011;23311;48.776;9.162;2023-04-16T10:34:36;19.07;;;12.80;;
291;SDS011;23311;48.776;9.162;2023-04-16T10:37:04;18.33;;;12.90;;
291;SDS011;23311;48.776;9.162;2023-04-16T10:39:33;16.43;;;12.83;;
291;SDS011;23311;48.776;9.162;2023-04-16T10:42:06;16.50;;;12.83;;
291;SDS011;23311;48.776;9.162;2023-04-16T10:44:37;13.83;;;11.67;;
291;SDS011;23311;48.776;9.162;2023-04-16T10:47:10;16.30;;;12.80;;
291;SDS011;23311;48.776;9.162;2023-04-16T10:49:39;16.80;;;12.53;;
291;SDS011;23311;48.776;9.162;2023-04-16T10:52:09;17.37;;;12.60;;
291;SDS011;23311;48.776;9.162;2023-04-16T10:54:39;15.20;;;11.80;;
291;SDS011;23311;48.776;9.162;2023-04-16T10:57:08;17.03;;;12.73;;
291;SDS011;23311;48.776;9.162;2023-04-16T10:59:44;16.80;;;11.37;;
291;SDS011;23311;48.776;9.162;2023-04-16T11:02:15;20.00;;;14.20;;
291;SDS011;23311;48.776;9.162;2023-04-16T11:04:47;14.33;;;10.70;;
291;SDS011;23311;48.776;9.162;2023-04-16T11:07:17;16.30;;;12.20;;
291;SDS011;23311;48.776;9.162;2023-04-16T11:09:56;13.17;;;10.90;;
291;SDS011;23311;48.776;9.162;2023-04-16T11:12:26;16.10;;;11.00;;
291;SDS011;23311;48.776;9.162;2023-04-16T11:15:06;14.37;;;9.87;;
291;SDS011;23311;48.776;9.162;2023-04-16T11:17:36;15.27;;;10.83;;
291;SDS011;23311;48.776;9.162;2023-04-16T11:20:15;13.90;;;10.00;;
291;SDS011;23311;48.776;9.162;2023-04-16T11:22:46;14.93;;;11.40;;
291;SDS011;23311;48.776;9.162;2023-04-16T11:25:18;12.50;;;8.80;;
291;SDS011;23311;48.776;9.162;2023-04-16T11:27:47;14.00;;;9.73;;
291;SDS011;23311;48.776;9.162;2023-04-16T11:30:17;11.30;;;8.80;;
291;SDS011;23311;48.776;9.162;2023-04-16T11:32:54;11.33;;;9.20;;
291;SDS011;23311;48.776;9.162;2023-04-16T11:35:22;11.57;;;8.83;;
291;SDS011;23311;48.776;9.162;2023-04-16T11:37:54;11.50;;;8.10;;
291;SDS011;23311;48.776;9.162;2023-04-16T11:40:23;9.23;;;7.53;;
291;SDS011;23311;48.776;9.162;2023-04-16T11:42:51;8.60;;;6.93;;
291;SDS011;23311;48.776;9.162;2023-04-16T11:45:20;8.83;;;7.07;;
291;SDS011;23311;48.776;9.162;2023-04-16T11:47:49;8.97;;;6.80;;
291;SDS011;23311;48.776;9.162;2023-04-16T11:50:22;9.50;;;6.70;;
291;SDS011;23311;48.776;9.162;2023-04-16T11:52:52;8.97;;;6.80;;
291;SDS011;23311;48.776;9.162;2023-04-16T11:55:22;8.53;;;6.80;;
291;SDS011;23311;48.776;9.162;2023-04-16T11:57:51;8.30;;;5.80;;
291;SDS011;23311;48.776;9.162;2023-04-16T12:00:20;8.00;;;6.27;;
291;SDS011;23311;48.776;9.162;2023-04-16T12:02:50;7.20;;;6.03;;
291;SDS011;23311;48.776;9.162;2023-04-16T12:05:26;6.43;;;5.20;;
291;SDS011;23311;48.776;9.162;2023-04-16T12:07:57;7.23;;;4.97;;
291;SDS011;23311;48.776;9.162;2023-04-16T12:10:27;5.43;;;4.70;;
291;SDS011;23311;48.776;9.162;2023-04-16T12:13:08;7.43;;;4.70;;
291;SDS011;23311;48.776;9.162;2023-04-16T12:15:48;5.90;;;4.90;;
291;SDS011;23311;48.776;9.162;2023-04-16T12:18:17;9.20;;;5.27;;
291;SDS011;23311;48.776;9.162;2023-04-16T12:20:46;5.97;;;5.03;;
291;SDS011;23311;48.776;9.162;2023-04-16T12:23:22;6.13;;;5.20;;
291;SDS011;23311;48.776;9.162;2023-04-16T12:25:52;7.03;;;5.03;;
291;SDS011;23311;48.776;9.162;2023-04-16T12:28:29;7.83;;;5.90;;
291;SDS011;23311;48.776;9.162;2023-04-16T12:30:59;5.40;;;4.67;;
291;SDS011;23311;48.776;9.162;2023-04-16T12:33:28;7.40;;;5.57;;
291;SDS011;23311;48.776;9.162;2023-04-16T12:35:57;6.57;;;4.53;;
291;SDS011;23311;48.776;9.162;2023-04-16T12:38:26;5.00;;;4.53;;
291;SDS011;23311;48.776;9.162;2023-04-16T12:40:54;5.00;;;4.60;;
291;SDS011;23311;48.776;9.162;2023-04-16T12:43:23;6.13;;;5.20;;
291;SDS011;23311;48.776;9.162;2023-04-16T12:45:51;6.27;;;5.80;;
291;SDS011;23311;48.776;9.162;2023-04-16T12:48:20;6.57;;;4.50;;
291;SDS011;23311;48.776;9.162;2023-04-16T12:50:48;5.70;;;4.37;;
291;SDS011;23311;48.776;9.162;2023-04-16T12:53:19;6.63;;;5.50;;
291;SDS011;23311;48.776;9.162;2023-04-16T12:55:47;6.43;;;4.93;;
291;SDS011;23311;48.776;9.162;2023-04-16T12:58:15;5.53;;;5.10;;
291;SDS011;23311;48.776;9.162;2023-04-16T13:00:43;9.33;;;6.30;;
291;SDS011;23311;48.776;9.162;2023-04-16T13:03:12;5.97;;;5.40;;
291;SDS011;23311;48.776;9.162;2023-04-16T13:05:41;5.23;;;5.00;;
291;SDS011;23311;48.776;9.162;2023-04-16T13:08:10;5.90;;;5.10;;
291;SDS011;23311;48.776;9.162;2023-04-16T13:10:38;8.67;;;6.40;;
291;SDS011;23311;48.776;9.162;2023-04-16T13:13:06;5.83;;;4.70;;
291;SDS011;23311;48.776;9.162;2023-04-16T13:15:34;6.97;;;5.83;;
291;SDS011;23311;48.776;9.162;2023-04-16T13:18:03;9.10;;;6.80;;
291;SDS011;23311;48.776;9.162;2023-04-16T13:20:52;8.37;;;6.17;;
291;SDS011;23311;48.776;9.162;2023-04-16T13:23:22;7.53;;;5.77;;
291;SDS011;23311;48.776;9.162;2023-04-16T13:25:50;9.20;;;6.70;;
291;SDS011;23311;48.776;9.162;2023-04-16T13:28:19;8.73;;;6.53;;
291;SDS011;23311;48.776;9.162;2023-04-16T13:30:47;7.17;;;6.07;;
291;SDS011;23311;48.776;9.162;2023-04-16T13:33:19;8.47;;;6.80;;
291;SDS011;23311;48.776;9.162;2023-04-16T13:35:55;8.20;;;6.20;;
291;SDS011;23311;48.776;9.162;2023-04-16T13:38:23;8.90;;;6.80;;
291;SDS011;23311;48.776;9.162;2023-04-16T13:40:53;8.10;;;6.70;;
291;SDS011;23311;48.776;9.162;2023-04-16T13:43:22;9.30;;;7.13;;
291;SDS011;23311;48.776;9.162;2023-04-16T13:45:50;10.47;;;7.37;;
291;SDS011;23311;48.776;9.162;2023-04-16T13:48:18;9.17;;;6.90;;
291;SDS011;23311;48.776;9.162;2023-04-16T13:50:46;10.03;;;7.83;;
291;SDS011;23311;48.776;9.162;2023-04-16T13:53:16;8.40;;;7.90;;
291;SDS011;23311;48.776;9.162;2023-04-16T13:55:44;9.07;;;7.50;;
291;SDS011;23311;48.776;9.162;2023-04-16T13:58:12;9.17;;;7.43;;
291;SDS011;23311;48.776;9.162;2023-04-16T14:00:40;9.17;;;6.73;;
291;SDS011;23311;48.776;9.162;2023-04-16T14:03:08;10.20;;;7.50;;
291;SDS011;23311;48.776;9.162;2023-04-16T14:05:37;9.60;;;7.63;;
291;SDS011;23311;48.776;9.162;2023-04-16T14:08:06;11.03;;;8.00;;
291;SDS011;23311;48.776;9.162;2023-04-16T14:10:36;9.80;;;8.07;;
291;SDS011;23311;48.776;9.162;2023-04-16T14:13:05;11.63;;;9.07;;
291;SDS011;23311;48.776;9.162;2023-04-16T14:15:34;9.70;;;7.50;;
291;SDS011;23311;48.776;9.162;2023-04-16T14:18:02;10.10;;;8.23;;
291;SDS011;23311;48.776;9.162;2023-04-16T14:20:30;11.07;;;8.13;;
291;SDS011;23311;48.776;9.162;2023-04-16T14:22:59;11.00;;;9.60;;
291;SDS011;23311;48.776;9.162;2023-04-16T14:25:30;11.43;;;8.60;;
291;SDS011;23311;48.776;9.162;2023-04-16T14:27:59;12.20;;;8.63;;
291;SDS011;23311;48.776;9.162;2023-04-16T14:30:28;10.10;;;8.53;;
291;SDS011;23311;48.776;9.162;2023-04-16T14:32:56;11.57;;;9.50;;
291;SDS011;23311;48.776;9.162;2023-04-16T14:35:26;9.90;;;8.67;;
291;SDS011;23311;48.776;9.162;2023-04-16T14:37:55;10.37;;;8.97;;
291;SDS011;23311;48.776;9.162;2023-04-16T14:40:23;10.33;;;8.97;;
291;SDS011;23311;48.776;9.162;2023-04-16T14:42:51;11.40;;;8.77;;
291;SDS011;23311;48.776;9.162;2023-04-16T14:45:21;12.87;;;10.90;;
291;SDS011;23311;48.776;9.162;2023-04-16T14:47:51;12.57;;;10.10;;
291;SDS011;23311;48.776;9.162;2023-04-16T14:50:20;13.87;;;10.50;;
291;SDS011;23311;48.776;9.162;2023-04-16T14:52:48;15.17;;;10.90;;
291;SDS011;23311;48.776;9.162;2023-04-16T14:55:17;13.87;;;11.43;;
291;SDS011;23311;48.776;9.162;2023-04-16T14:57:45;15.13;;;12.43;;
291;SDS011;23311;48.776;9.162;2023-04-16T15:00:13;14.57;;;12.00;;
291;SDS011;23311;48.776;9.162;2023-04-16T15:02:45;15.10;;;11.33;;
291;SDS011;23311;48.776;9.162;2023-04-16T15:05:14;16.77;;;12.17;;
291;SDS011;23311;48.776;9.162;2023-04-16T15:07:46;16.30;;;12.73;;